sensor_id;sensor_type;location;lat;lon;timestamp;P1;durP1;ratioP1;P2;durP2;ratioP2
55465;SDS011;41329;41.594;23.810;2023-04-25T00:00:21;1.00;;;0.90;;
55465;SDS011;41329;41.594;23.810;2023-04-25T00:02:47;0.90;;;0.90;;
55465;SDS011;41329;41.594;23.810;2023-04-25T00:05:12;1.50;;;0.87;;
55465;SDS011;41329;41.594;23.810;2023-04-25T00:07:40;1.40;;;1.30;;
55465;SDS011;41329;41.594;23.810;2023-04-25T00:10:07;0.93;;;0.87;;
55465;SDS011;41329;41.594;23.810;2023-04-25T00:12:33;1.43;;;1.13;;
55465;SDS011;41329;41.594;23.810;2023-04-25T00:14:59;1.80;;;1.00;;
55465;SDS011;41329;41.594;23.810;2023-04-25T00:17:24;1.10;;;1.00;;
55465;SDS011;41329;41.594;23.810;2023-04-25T00:19:50;1.07;;;0.90;;
55465;SDS011;41329;41.594;23.810;2023-04-25T00:22:16;1.17;;;0.90;;
55465;SDS011;41329;41.594;23.810;2023-04-25T00:24:42;0.90;;;0.73;;
55465;SDS011;41329;41.594;23.810;2023-04-25T00:27:07;1.13;;;0.80;;
55465;SDS011;41329;41.594;23.810;2023-04-25T00:29:33;1.07;;;0.97;;
55465;SDS011;41329;41.594;23.810;2023-04-25T00:31:59;1.00;;;0.90;;
55465;SDS011;41329;41.594;23.810;2023-04-25T00:34:24;1.23;;;0.90;;
55465;SDS011;41329;41.594;23.810;2023-04-25T00:36:50;1.20;;;1.10;;
55465;SDS011;41329;41.594;23.810;2023-04-25T00:39:15;0.90;;;0.90;;
55465;SDS011;41329;41.594;23.810;2023-04-25T00:41:40;0.83;;;0.83;;
55465;SDS011;41329;41.594;23.810;2023-04-25T00:44:06;1.53;;;1.20;;
55465;SDS011;41329;41.594;23.810;2023-04-25T00:46:33;1.43;;;1.30;;
55465;SDS011;41329;41.594;23.810;2023-04-25T00:49:00;1.33;;;1.17;;
55465;SDS011;41329;41.594;23.810;2023-04-25T00:51:25;1.00;;;0.90;;
55465;SDS011;41329;41.594;23.810;2023-04-25T00:53:51;2.00;;;1.30;;
55465;SDS011;41329;41.594;23.810;2023-04-25T00:56:18;1.43;;;1.33;;
55465;SDS011;41329;41.594;23.810;2023-04-25T00:58:43;1.13;;;1.03;;
55465;SDS011;41329;41.594;23.810;2023-04-25T01:01:10;1.50;;;1.30;;
55465;SDS011;41329;41.594;23.810;2023-04-25T01:03:37;1.87;;;1.67;;
55465;SDS011;41329;41.594;23.810;2023-04-25T01:06:07;2.57;;;1.30;;
55465;SDS011;41329;41.594;23.810;2023-04-25T01:08:37;1.05;;;1.05;;
55465;SDS011;41329;41.594;23.810;2023-04-25T01:11:04;2.03;;;1.50;;
55465;SDS011;41329;41.594;23.810;2023-04-25T01:13:30;2.50;;;2.03;;
55465;SDS011;41329;41.594;23.810;2023-04-25T01:15:57;1.37;;;1.27;;
55465;SDS011;41329;41.594;23.810;2023-04-25T01:18:23;2.03;;;1.30;;
55465;SDS011;41329;41.594;23.810;2023-04-25T01:20:50;1.10;;;1.10;;
55465;SDS011;41329;41.594;23.810;2023-04-25T01:23:16;1.90;;;1.20;;
55465;SDS011;41329;41.594;23.810;2023-04-25T01:25:43;1.47;;;1.10;;
55465;SDS011;41329;41.594;23.810;2023-04-25T01:28:10;1.13;;;1.00;;
55465;SDS011;41329;41.594;23.810;2023-04-25T01:30:35;1.63;;;1.10;;
55465;SDS011;41329;41.594;23.810;2023-04-25T01:33:01;1.70;;;0.97;;
55465;SDS011;41329;41.594;23.810;2023-04-25T01:35:30;2.77;;;1.30;;
55465;SDS011;41329;41.594;23.810;2023-04-25T01:37:56;1.53;;;1.43;;
55465;SDS011;41329;41.594;23.810;2023-04-25T01:40:21;1.80;;;1.70;;
55465;SDS011;41329;41.594;23.810;2023-04-25T01:42:49;3.73;;;2.77;;
55465;SDS011;41329;41.594;23.810;2023-04-25T01:45:14;4.27;;;2.90;;
55465;SDS011;41329;41.594;23.810;2023-04-25T01:47:40;2.77;;;1.73;;
55465;SDS011;41329;41.594;23.810;2023-04-25T01:50:08;2.70;;;1.43;;
55465;SDS011;41329;41.594;23.810;2023-04-25T01:52:34;1.30;;;1.20;;
55465;SDS011;41329;41.594;23.810;2023-04-25T01:55:00;1.97;;;1.30;;
55465;SDS011;41329;41.594;23.810;2023-04-25T01:57:26;1.63;;;1.20;;
55465;SDS011;41329;41.594;23.810;2023-04-25T01:59:54;1.60;;;1.50;;
55465;SDS011;41329;41.594;23.810;2023-04-25T02:02:24;1.60;;;1.50;;
55465;SDS011;41329;41.594;23.810;2023-04-25T02:04:49;1.43;;;1.33;;
55465;SDS011;41329;41.594;23.810;2023-04-25T02:07:14;2.57;;;1.50;;
55465;SDS011;41329;41.594;23.810;2023-04-25T02:09:40;1.40;;;1.30;;
55465;SDS011;41329;41.594;23.810;2023-04-25T02:12:07;1.50;;;1.30;;
55465;SDS011;41329;41.594;23.810;2023-04-25T02:14:33;1.67;;;1.10;;
55465;SDS011;41329;41.594;23.810;2023-04-25T02:16:59;2.20;;;1.63;;
55465;SDS011;41329;41.594;23.810;2023-04-25T02:19:24;1.73;;;1.10;;
55465;SDS011;41329;41.594;23.810;2023-04-25T02:21:50;0.90;;;0.90;;
55465;SDS011;41329;41.594;23.810;2023-04-25T02:24:15;0.80;;;0.70;;
55465;SDS011;41329;41.594;23.810;2023-04-25T02:26:41;1.30;;;1.20;;
55465;SDS011;41329;41.594;23.810;2023-04-25T02:29:06;1.80;;;1.63;;
55465;SDS011;41329;41.594;23.810;2023-04-25T02:31:32;1.67;;;1.40;;
55465;SDS011;41329;41.594;23.810;2023-04-25T02:33:57;1.70;;;1.60;;
55465;SDS011;41329;41.594;23.810;2023-04-25T02:36:23;2.50;;;1.27;;
55465;SDS011;41329;41.594;23.810;2023-04-25T02:38:49;1.30;;;1.20;;
55465;SDS011;41329;41.594;23.810;2023-04-25T02:41:14;1.17;;;1.07;;
55465;SDS011;41329;41.594;23.810;2023-04-25T02:43:40;1.10;;;1.10;;
55465;SDS011;41329;41.594;23.810;2023-04-25T02:46:05;1.20;;;1.10;;
55465;SDS011;41329;41.594;23.810;2023-04-25T02:48:31;1.37;;;1.10;;
55465;SDS011;41329;41.594;23.810;2023-04-25T02:50:56;6.90;;;6.50;;
55465;SDS011;41329;41.594;23.810;2023-04-25T02:53:22;7.10;;;6.50;;
55465;SDS011;41329;41.594;23.810;2023-04-25T02:55:47;9.60;;;8.70;;
55465;SDS011;41329;41.594;23.810;2023-04-25T02:58:12;8.93;;;8.23;;
55465;SDS011;41329;41.594;23.810;2023-04-25T03:00:38;7.53;;;6.87;;
55465;SDS011;41329;41.594;23.810;2023-04-25T03:03:03;4.60;;;4.30;;
55465;SDS011;41329;41.594;23.810;2023-04-25T03:05:29;5.00;;;4.70;;
55465;SDS011;41329;41.594;23.810;2023-04-25T03:07:54;3.47;;;3.27;;
55465;SDS011;41329;41.594;23.810;2023-04-25T03:10:20;1.67;;;1.57;;
55465;SDS011;41329;41.594;23.810;2023-04-25T03:12:45;1.53;;;1.43;;
55465;SDS011;41329;41.594;23.810;2023-04-25T03:15:11;1.70;;;1.60;;
55465;SDS011;41329;41.594;23.810;2023-04-25T03:17:36;2.17;;;1.67;;
55465;SDS011;41329;41.594;23.810;2023-04-25T03:20:02;2.00;;;1.90;;
55465;SDS011;41329;41.594;23.810;2023-04-25T03:22:29;1.73;;;1.63;;
55465;SDS011;41329;41.594;23.810;2023-04-25T03:24:54;2.50;;;2.33;;
55465;SDS011;41329;41.594;23.810;2023-04-25T03:27:19;2.20;;;2.00;;
55465;SDS011;41329;41.594;23.810;2023-04-25T03:29:45;3.17;;;1.83;;
55465;SDS011;41329;41.594;23.810;2023-04-25T03:32:10;3.03;;;2.83;;
55465;SDS011;41329;41.594;23.810;2023-04-25T03:34:36;8.20;;;6.50;;
55465;SDS011;41329;41.594;23.810;2023-04-25T03:37:01;5.20;;;4.80;;
55465;SDS011;41329;41.594;23.810;2023-04-25T03:39:27;3.30;;;2.93;;
55465;SDS011;41329;41.594;23.810;2023-04-25T03:41:52;2.80;;;1.90;;
55465;SDS011;41329;41.594;23.810;2023-04-25T03:44:17;1.70;;;1.00;;
55465;SDS011;41329;41.594;23.810;2023-04-25T03:46:43;3.87;;;0.90;;
55465;SDS011;41329;41.594;23.810;2023-04-25T03:49:08;1.47;;;0.70;;
55465;SDS011;41329;41.594;23.810;2023-04-25T03:51:34;1.47;;;1.20;;
55465;SDS011;41329;41.594;23.810;2023-04-25T03:53:59;0.90;;;0.90;;
55465;SDS011;41329;41.594;23.810;2023-04-25T03:56:25;0.93;;;0.90;;
55465;SDS011;41329;41.594;23.810;2023-04-25T03:58:50;1.00;;;1.00;;
55465;SDS011;41329;41.594;23.810;2023-04-25T04:01:16;0.80;;;0.80;;
55465;SDS011;41329;41.594;23.810;2023-04-25T04:03:41;1.00;;;0.80;;
55465;SDS011;41329;41.594;23.810;2023-04-25T04:06:07;1.00;;;0.90;;
55465;SDS011;41329;41.594;23.810;2023-04-25T04:08:33;1.23;;;1.03;;
55465;SDS011;41329;41.594;23.810;2023-04-25T04:10:59;1.60;;;0.87;;
55465;SDS011;41329;41.594;23.810;2023-04-25T04:13:25;0.90;;;0.90;;
55465;SDS011;41329;41.594;23.810;2023-04-25T04:15:52;3.73;;;1.10;;
55465;SDS011;41329;41.594;23.810;2023-04-25T04:18:17;1.10;;;0.93;;
55465;SDS011;41329;41.594;23.810;2023-04-25T04:20:43;1.23;;;1.00;;
55465;SDS011;41329;41.594;23.810;2023-04-25T04:23:08;1.80;;;1.03;;
55465;SDS011;41329;41.594;23.810;2023-04-25T04:25:34;1.67;;;1.37;;
55465;SDS011;41329;41.594;23.810;2023-04-25T04:28:00;0.93;;;0.87;;
55465;SDS011;41329;41.594;23.810;2023-04-25T04:30:26;0.90;;;0.90;;
55465;SDS011;41329;41.594;23.810;2023-04-25T04:32:55;1.53;;;1.00;;
55465;SDS011;41329;41.594;23.810;2023-04-25T04:35:21;2.17;;;0.90;;
55465;SDS011;41329;41.594;23.810;2023-04-25T04:37:47;1.07;;;0.93;;
55465;SDS011;41329;41.594;23.810;2023-04-25T04:40:14;1.30;;;1.20;;
55465;SDS011;41329;41.594;23.810;2023-04-25T04:42:42;1.00;;;0.90;;
55465;SDS011;41329;41.594;23.810;2023-04-25T04:45:10;1.03;;;1.00;;
55465;SDS011;41329;41.594;23.810;2023-04-25T04:47:36;2.43;;;1.00;;
55465;SDS011;41329;41.594;23.810;2023-04-25T04:50:05;3.13;;;1.07;;
55465;SDS011;41329;41.594;23.810;2023-04-25T04:52:33;0.90;;;0.90;;
55465;SDS011;41329;41.594;23.810;2023-04-25T04:55:00;1.17;;;1.13;;
55465;SDS011;41329;41.594;23.810;2023-04-25T04:57:25;1.17;;;0.90;;
55465;SDS011;41329;41.594;23.810;2023-04-25T04:59:51;0.97;;;0.97;;
55465;SDS011;41329;41.594;23.810;2023-04-25T05:02:17;0.80;;;0.80;;
55465;SDS011;41329;41.594;23.810;2023-04-25T05:04:42;1.20;;;1.07;;
55465;SDS011;41329;41.594;23.810;2023-04-25T05:07:08;1.00;;;0.90;;
55465;SDS011;41329;41.594;23.810;2023-04-25T05:09:33;1.10;;;1.00;;
55465;SDS011;41329;41.594;23.810;2023-04-25T05:11:59;1.00;;;0.90;;
55465;SDS011;41329;41.594;23.810;2023-04-25T05:14:26;1.27;;;1.10;;
55465;SDS011;41329;41.594;23.810;2023-04-25T05:16:51;1.20;;;1.10;;
55465;SDS011;41329;41.594;23.810;2023-04-25T05:19:17;1.40;;;1.30;;
55465;SDS011;41329;41.594;23.810;2023-04-25T05:21:42;2.67;;;1.70;;
55465;SDS011;41329;41.594;23.810;2023-04-25T05:24:08;2.73;;;1.40;;
55465;SDS011;41329;41.594;23.810;2023-04-25T05:26:33;3.13;;;2.93;;
55465;SDS011;41329;41.594;23.810;2023-04-25T05:28:59;4.60;;;4.30;;
55465;SDS011;41329;41.594;23.810;2023-04-25T05:31:25;6.97;;;6.47;;
55465;SDS011;41329;41.594;23.810;2023-04-25T05:33:50;8.93;;;8.43;;
55465;SDS011;41329;41.594;23.810;2023-04-25T05:36:16;8.93;;;8.43;;
55465;SDS011;41329;41.594;23.810;2023-04-25T05:38:42;9.03;;;8.20;;
55465;SDS011;41329;41.594;23.810;2023-04-25T05:41:08;7.63;;;6.97;;
55465;SDS011;41329;41.594;23.810;2023-04-25T05:43:33;9.57;;;8.97;;
55465;SDS011;41329;41.594;23.810;2023-04-25T05:45:59;8.63;;;7.93;;
55465;SDS011;41329;41.594;23.810;2023-04-25T05:48:24;8.60;;;8.03;;
55465;SDS011;41329;41.594;23.810;2023-04-25T05:50:50;7.10;;;6.70;;
55465;SDS011;41329;41.594;23.810;2023-04-25T05:53:16;7.23;;;6.77;;
55465;SDS011;41329;41.594;23.810;2023-04-25T05:55:42;9.30;;;8.70;;
55465;SDS011;41329;41.594;23.810;2023-04-25T05:58:08;7.43;;;7.00;;
55465;SDS011;41329;41.594;23.810;2023-04-25T06:00:33;6.97;;;6.47;;
55465;SDS011;41329;41.594;23.810;2023-04-25T06:02:59;8.63;;;8.03;;
55465;SDS011;41329;41.594;23.810;2023-04-25T06:05:25;20.33;;;18.60;;
55465;SDS011;41329;41.594;23.810;2023-04-25T06:07:50;5.50;;;5.00;;
55465;SDS011;41329;41.594;23.810;2023-04-25T06:10:16;4.57;;;4.27;;
55465;SDS011;41329;41.594;23.810;2023-04-25T06:12:41;3.57;;;3.27;;
55465;SDS011;41329;41.594;23.810;2023-04-25T06:15:07;5.20;;;4.73;;
55465;SDS011;41329;41.594;23.810;2023-04-25T06:17:32;4.80;;;4.47;;
55465;SDS011;41329;41.594;23.810;2023-04-25T06:19:58;5.90;;;5.50;;
55465;SDS011;41329;41.594;23.810;2023-04-25T06:22:24;7.10;;;6.60;;
55465;SDS011;41329;41.594;23.810;2023-04-25T06:24:49;6.60;;;6.10;;
55465;SDS011;41329;41.594;23.810;2023-04-25T06:27:14;7.20;;;4.90;;
55465;SDS011;41329;41.594;23.810;2023-04-25T06:29:40;4.57;;;4.27;;
55465;SDS011;41329;41.594;23.810;2023-04-25T06:32:05;5.27;;;4.87;;
55465;SDS011;41329;41.594;23.810;2023-04-25T06:34:31;4.57;;;4.27;;
55465;SDS011;41329;41.594;23.810;2023-04-25T06:36:56;3.27;;;3.07;;
55465;SDS011;41329;41.594;23.810;2023-04-25T06:39:21;3.50;;;2.80;;
55465;SDS011;41329;41.594;23.810;2023-04-25T06:41:48;2.97;;;2.77;;
55465;SDS011;41329;41.594;23.810;2023-04-25T06:44:14;5.03;;;4.63;;
55465;SDS011;41329;41.594;23.810;2023-04-25T06:46:40;2.63;;;2.43;;
55465;SDS011;41329;41.594;23.810;2023-04-25T06:49:05;5.80;;;3.60;;
55465;SDS011;41329;41.594;23.810;2023-04-25T06:51:31;2.70;;;2.50;;
55465;SDS011;41329;41.594;23.810;2023-04-25T06:53:56;8.90;;;8.37;;
55465;SDS011;41329;41.594;23.810;2023-04-25T06:56:22;7.90;;;7.40;;
55465;SDS011;41329;41.594;23.810;2023-04-25T06:58:48;6.50;;;6.10;;
55465;SDS011;41329;41.594;23.810;2023-04-25T07:01:14;8.23;;;7.53;;
55465;SDS011;41329;41.594;23.810;2023-04-25T07:03:39;6.57;;;5.97;;
55465;SDS011;41329;41.594;23.810;2023-04-25T07:06:05;6.33;;;5.90;;
55465;SDS011;41329;41.594;23.810;2023-04-25T07:08:30;4.50;;;4.20;;
55465;SDS011;41329;41.594;23.810;2023-04-25T07:10:56;5.53;;;5.13;;
55465;SDS011;41329;41.594;23.810;2023-04-25T07:13:21;7.97;;;4.87;;
55465;SDS011;41329;41.594;23.810;2023-04-25T07:15:47;4.40;;;4.10;;
55465;SDS011;41329;41.594;23.810;2023-04-25T07:18:13;3.80;;;3.50;;
55465;SDS011;41329;41.594;23.810;2023-04-25T07:20:39;3.23;;;3.03;;
55465;SDS011;41329;41.594;23.810;2023-04-25T07:23:04;3.70;;;3.40;;
55465;SDS011;41329;41.594;23.810;2023-04-25T07:25:30;6.37;;;5.73;;
55465;SDS011;41329;41.594;23.810;2023-04-25T07:27:55;4.80;;;4.50;;
55465;SDS011;41329;41.594;23.810;2023-04-25T07:30:21;4.90;;;4.60;;
55465;SDS011;41329;41.594;23.810;2023-04-25T07:32:47;5.57;;;5.17;;
55465;SDS011;41329;41.594;23.810;2023-04-25T07:35:13;5.07;;;4.77;;
55465;SDS011;41329;41.594;23.810;2023-04-25T07:37:39;5.13;;;4.73;;
55465;SDS011;41329;41.594;23.810;2023-04-25T07:40:04;5.07;;;4.57;;
55465;SDS011;41329;41.594;23.810;2023-04-25T07:42:30;4.90;;;4.53;;
55465;SDS011;41329;41.594;23.810;2023-04-25T07:44:56;4.13;;;3.93;;
55465;SDS011;41329;41.594;23.810;2023-04-25T07:47:22;5.65;;;3.88;;
55465;SDS011;41329;41.594;23.810;2023-04-25T07:49:47;4.87;;;4.47;;
55465;SDS011;41329;41.594;23.810;2023-04-25T07:52:13;5.07;;;4.77;;
55465;SDS011;41329;41.594;23.810;2023-04-25T07:54:38;3.97;;;3.77;;
55465;SDS011;41329;41.594;23.810;2023-04-25T07:57:04;5.33;;;3.23;;
55465;SDS011;41329;41.594;23.810;2023-04-25T07:59:31;5.93;;;3.77;;
55465;SDS011;41329;41.594;23.810;2023-04-25T08:01:57;4.18;;;3.80;;
55465;SDS011;41329;41.594;23.810;2023-04-25T08:04:22;4.20;;;3.90;;
55465;SDS011;41329;41.594;23.810;2023-04-25T08:06:48;4.18;;;3.65;;
55465;SDS011;41329;41.594;23.810;2023-04-25T08:09:13;3.90;;;3.60;;
55465;SDS011;41329;41.594;23.810;2023-04-25T08:11:40;4.15;;;3.85;;
55465;SDS011;41329;41.594;23.810;2023-04-25T08:14:06;3.97;;;3.67;;
55465;SDS011;41329;41.594;23.810;2023-04-25T08:16:32;4.40;;;4.10;;
55465;SDS011;41329;41.594;23.810;2023-04-25T08:18:59;3.67;;;3.40;;
55465;SDS011;41329;41.594;23.810;2023-04-25T08:21:25;3.85;;;3.17;;
55465;SDS011;41329;41.594;23.810;2023-04-25T08:23:51;4.30;;;3.13;;
55465;SDS011;41329;41.594;23.810;2023-04-25T08:26:17;2.92;;;2.72;;
55465;SDS011;41329;41.594;23.810;2023-04-25T08:28:42;3.28;;;2.97;;
55465;SDS011;41329;41.594;23.810;2023-04-25T08:31:08;4.07;;;3.65;;
55465;SDS011;41329;41.594;23.810;2023-04-25T08:33:33;5.32;;;4.97;;
55465;SDS011;41329;41.594;23.810;2023-04-25T08:35:59;5.05;;;4.75;;
55465;SDS011;41329;41.594;23.810;2023-04-25T08:38:24;4.68;;;4.18;;
55465;SDS011;41329;41.594;23.810;2023-04-25T08:40:50;4.93;;;4.63;;
55465;SDS011;41329;41.594;23.810;2023-04-25T08:43:19;4.55;;;4.10;;
55465;SDS011;41329;41.594;23.810;2023-04-25T08:45:45;3.25;;;3.10;;
55465;SDS011;41329;41.594;23.810;2023-04-25T08:48:12;3.83;;;3.53;;
55465;SDS011;41329;41.594;23.810;2023-04-25T08:50:40;3.42;;;3.22;;
55465;SDS011;41329;41.594;23.810;2023-04-25T08:55:38;3.58;;;3.22;;
55465;SDS011;41329;41.594;23.810;2023-04-25T08:58:06;3.08;;;2.83;;
55465;SDS011;41329;41.594;23.810;2023-04-25T09:00:32;3.45;;;3.17;;
55465;SDS011;41329;41.594;23.810;2023-04-25T09:02:58;3.63;;;3.42;;
55465;SDS011;41329;41.594;23.810;2023-04-25T09:05:24;4.90;;;4.50;;
55465;SDS011;41329;41.594;23.810;2023-04-25T09:07:50;5.22;;;4.82;;
55465;SDS011;41329;41.594;23.810;2023-04-25T09:10:15;4.07;;;3.83;;
55465;SDS011;41329;41.594;23.810;2023-04-25T09:12:41;5.20;;;4.80;;
55465;SDS011;41329;41.594;23.810;2023-04-25T09:15:10;5.60;;;5.28;;
55465;SDS011;41329;41.594;23.810;2023-04-25T09:17:37;6.03;;;5.53;;
55465;SDS011;41329;41.594;23.810;2023-04-25T09:20:09;6.28;;;5.72;;
55465;SDS011;41329;41.594;23.810;2023-04-25T09:22:37;5.50;;;4.93;;
55465;SDS011;41329;41.594;23.810;2023-04-25T09:25:07;4.70;;;4.40;;
55465;SDS011;41329;41.594;23.810;2023-04-25T09:27:36;3.22;;;3.03;;
55465;SDS011;41329;41.594;23.810;2023-04-25T09:30:16;2.35;;;2.00;;
55465;SDS011;41329;41.594;23.810;2023-04-25T09:32:42;2.22;;;2.08;;
55465;SDS011;41329;41.594;23.810;2023-04-25T09:35:08;1.83;;;1.70;;
55465;SDS011;41329;41.594;23.810;2023-04-25T09:37:34;2.08;;;1.88;;
55465;SDS011;41329;41.594;23.810;2023-04-25T09:40:00;3.25;;;2.03;;
55465;SDS011;41329;41.594;23.810;2023-04-25T09:42:31;1.80;;;1.65;;
55465;SDS011;41329;41.594;23.810;2023-04-25T09:44:59;2.00;;;1.80;;
55465;SDS011;41329;41.594;23.810;2023-04-25T09:47:27;2.20;;;2.00;;
55465;SDS011;41329;41.594;23.810;2023-04-25T09:49:54;2.00;;;1.40;;
55465;SDS011;41329;41.594;23.810;2023-04-25T09:52:23;2.00;;;1.90;;
55465;SDS011;41329;41.594;23.810;2023-04-25T09:54:49;1.65;;;1.48;;
55465;SDS011;41329;41.594;23.810;2023-04-25T09:57:17;1.88;;;1.70;;
55465;SDS011;41329;41.594;23.810;2023-04-25T09:59:45;2.25;;;2.05;;
55465;SDS011;41329;41.594;23.810;2023-04-25T10:02:13;2.20;;;1.30;;
55465;SDS011;41329;41.594;23.810;2023-04-25T10:04:40;1.60;;;1.50;;
55465;SDS011;41329;41.594;23.810;2023-04-25T10:07:07;1.20;;;1.00;;
55465;SDS011;41329;41.594;23.810;2023-04-25T10:09:33;1.10;;;1.00;;
55465;SDS011;41329;41.594;23.810;2023-04-25T10:12:02;0.80;;;0.80;;
55465;SDS011;41329;41.594;23.810;2023-04-25T10:14:31;1.10;;;1.00;;
55465;SDS011;41329;41.594;23.810;2023-04-25T10:16:57;2.45;;;1.75;;
55465;SDS011;41329;41.594;23.810;2023-04-25T10:19:24;1.33;;;1.20;;
55465;SDS011;41329;41.594;23.810;2023-04-25T10:21:52;1.27;;;1.17;;
55465;SDS011;41329;41.594;23.810;2023-04-25T10:24:20;1.70;;;1.17;;
55465;SDS011;41329;41.594;23.810;2023-04-25T10:26:47;1.10;;;1.00;;
55465;SDS011;41329;41.594;23.810;2023-04-25T10:29:15;1.33;;;1.00;;
55465;SDS011;41329;41.594;23.810;2023-04-25T10:31:47;0.82;;;0.82;;
55465;SDS011;41329;41.594;23.810;2023-04-25T10:34:13;1.10;;;1.00;;
55465;SDS011;41329;41.594;23.810;2023-04-25T10:36:38;1.33;;;0.93;;
55465;SDS011;41329;41.594;23.810;2023-04-25T10:39:05;2.40;;;1.17;;
55465;SDS011;41329;41.594;23.810;2023-04-25T10:44:32;1.52;;;0.80;;
55465;SDS011;41329;41.594;23.810;2023-04-25T10:46:59;0.80;;;0.75;;
55465;SDS011;41329;41.594;23.810;2023-04-25T10:49:33;1.50;;;1.17;;
55465;SDS011;41329;41.594;23.810;2023-04-25T10:52:13;2.58;;;0.90;;
55465;SDS011;41329;41.594;23.810;2023-04-25T10:54:42;1.63;;;0.98;;
55465;SDS011;41329;41.594;23.810;2023-04-25T10:57:29;1.35;;;0.70;;
55465;SDS011;41329;41.594;23.810;2023-04-25T11:02:53;0.70;;;0.70;;
55465;SDS011;41329;41.594;23.810;2023-04-25T11:05:35;2.60;;;1.77;;
55465;SDS011;41329;41.594;23.810;2023-04-25T11:08:01;0.95;;;0.77;;
55465;SDS011;41329;41.594;23.810;2023-04-25T11:10:29;0.70;;;0.70;;
55465;SDS011;41329;41.594;23.810;2023-04-25T11:12:56;0.70;;;0.70;;
55465;SDS011;41329;41.594;23.810;2023-04-25T11:15:25;1.48;;;0.80;;
55465;SDS011;41329;41.594;23.810;2023-04-25T11:17:54;0.52;;;0.50;;
55465;SDS011;41329;41.594;23.810;2023-04-25T11:20:20;0.52;;;0.52;;
55465;SDS011;41329;41.594;23.810;2023-04-25T11:22:47;1.20;;;0.70;;
55465;SDS011;41329;41.594;23.810;2023-04-25T11:25:15;1.40;;;0.70;;
55465;SDS011;41329;41.594;23.810;2023-04-25T11:27:51;0.73;;;0.70;;
55465;SDS011;41329;41.594;23.810;2023-04-25T11:30:24;0.80;;;0.77;;
55465;SDS011;41329;41.594;23.810;2023-04-25T11:32:51;0.70;;;0.70;;
55465;SDS011;41329;41.594;23.810;2023-04-25T11:35:17;0.43;;;0.43;;
55465;SDS011;41329;41.594;23.810;2023-04-25T11:37:43;0.68;;;0.68;;
55465;SDS011;41329;41.594;23.810;2023-04-25T11:40:10;1.45;;;0.63;;
55465;SDS011;41329;41.594;23.810;2023-04-25T11:42:41;0.75;;;0.60;;
55465;SDS011;41329;41.594;23.810;2023-04-25T11:45:09;1.05;;;0.50;;
55465;SDS011;41329;41.594;23.810;2023-04-25T11:47:35;3.50;;;2.20;;
55465;SDS011;41329;41.594;23.810;2023-04-25T11:50:01;2.90;;;1.75;;
55465;SDS011;41329;41.594;23.810;2023-04-25T11:55:12;9.00;;;6.25;;
55465;SDS011;41329;41.594;23.810;2023-04-25T11:57:39;1.95;;;1.52;;
55465;SDS011;41329;41.594;23.810;2023-04-25T12:00:15;1.17;;;1.00;;
55465;SDS011;41329;41.594;23.810;2023-04-25T12:02:44;1.33;;;1.10;;
55465;SDS011;41329;41.594;23.810;2023-04-25T12:05:12;0.98;;;0.90;;
55465;SDS011;41329;41.594;23.810;2023-04-25T12:07:39;2.47;;;0.60;;
55465;SDS011;41329;41.594;23.810;2023-04-25T12:10:08;0.35;;;0.30;;
55465;SDS011;41329;41.594;23.810;2023-04-25T12:12:41;0.40;;;0.40;;
55465;SDS011;41329;41.594;23.810;2023-04-25T12:15:11;0.65;;;0.50;;
55465;SDS011;41329;41.594;23.810;2023-04-25T12:17:40;0.40;;;0.40;;
55465;SDS011;41329;41.594;23.810;2023-04-25T12:20:07;1.25;;;0.50;;
55465;SDS011;41329;41.594;23.810;2023-04-25T12:22:48;0.40;;;0.40;;
55465;SDS011;41329;41.594;23.810;2023-04-25T12:33:23;1.65;;;0.30;;
55465;SDS011;41329;41.594;23.810;2023-04-25T12:35:49;0.82;;;0.40;;
55465;SDS011;41329;41.594;23.810;2023-04-25T12:38:25;0.85;;;0.30;;
55465;SDS011;41329;41.594;23.810;2023-04-25T12:40:55;0.10;;;0.10;;
55465;SDS011;41329;41.594;23.810;2023-04-25T12:43:21;0.40;;;0.40;;
55465;SDS011;41329;41.594;23.810;2023-04-25T12:45:47;0.85;;;0.40;;
55465;SDS011;41329;41.594;23.810;2023-04-25T12:48:14;0.40;;;0.40;;
55465;SDS011;41329;41.594;23.810;2023-04-25T12:50:39;0.77;;;0.60;;
55465;SDS011;41329;41.594;23.810;2023-04-25T12:53:06;2.40;;;0.82;;
55465;SDS011;41329;41.594;23.810;2023-04-25T12:55:31;4.30;;;0.70;;
55465;SDS011;41329;41.594;23.810;2023-04-25T12:57:57;4.60;;;0.47;;
55465;SDS011;41329;41.594;23.810;2023-04-25T13:00:22;0.38;;;0.38;;
55465;SDS011;41329;41.594;23.810;2023-04-25T13:02:48;0.32;;;0.30;;
55465;SDS011;41329;41.594;23.810;2023-04-25T13:05:13;1.05;;;0.30;;
55465;SDS011;41329;41.594;23.810;2023-04-25T13:07:38;0.40;;;0.40;;
55465;SDS011;41329;41.594;23.810;2023-04-25T13:10:04;0.30;;;0.30;;
55465;SDS011;41329;41.594;23.810;2023-04-25T13:12:30;0.70;;;0.70;;
55465;SDS011;41329;41.594;23.810;2023-04-25T13:14:56;0.55;;;0.55;;
55465;SDS011;41329;41.594;23.810;2023-04-25T13:17:22;1.63;;;1.00;;
55465;SDS011;41329;41.594;23.810;2023-04-25T13:19:47;0.90;;;0.40;;
55465;SDS011;41329;41.594;23.810;2023-04-25T13:22:13;0.80;;;0.43;;
55465;SDS011;41329;41.594;23.810;2023-04-25T13:24:40;1.67;;;0.60;;
55465;SDS011;41329;41.594;23.810;2023-04-25T13:27:06;1.05;;;0.65;;
55465;SDS011;41329;41.594;23.810;2023-04-25T13:29:31;1.52;;;0.50;;
55465;SDS011;41329;41.594;23.810;2023-04-25T13:31:59;0.73;;;0.52;;
55465;SDS011;41329;41.594;23.810;2023-04-25T13:34:25;0.90;;;0.90;;
55465;SDS011;41329;41.594;23.810;2023-04-25T13:36:50;0.82;;;0.60;;
55465;SDS011;41329;41.594;23.810;2023-04-25T13:39:16;0.80;;;0.80;;
55465;SDS011;41329;41.594;23.810;2023-04-25T13:41:41;2.58;;;1.33;;
55465;SDS011;41329;41.594;23.810;2023-04-25T13:44:07;3.00;;;1.38;;
55465;SDS011;41329;41.594;23.810;2023-04-25T13:46:32;1.75;;;1.65;;
55465;SDS011;41329;41.594;23.810;2023-04-25T13:48:58;2.08;;;1.55;;
55465;SDS011;41329;41.594;23.810;2023-04-25T13:51:23;4.35;;;2.00;;
55465;SDS011;41329;41.594;23.810;2023-04-25T13:53:48;0.70;;;0.70;;
55465;SDS011;41329;41.594;23.810;2023-04-25T13:56:14;1.50;;;1.00;;
55465;SDS011;41329;41.594;23.810;2023-04-25T13:58:39;3.90;;;3.25;;
55465;SDS011;41329;41.594;23.810;2023-04-25T14:01:05;7.85;;;6.78;;
55465;SDS011;41329;41.594;23.810;2023-04-25T14:03:30;8.02;;;7.13;;
55465;SDS011;41329;41.594;23.810;2023-04-25T14:05:56;1.33;;;0.88;;
55465;SDS011;41329;41.594;23.810;2023-04-25T14:08:21;1.52;;;0.95;;
55465;SDS011;41329;41.594;23.810;2023-04-25T14:10:47;1.00;;;0.70;;
55465;SDS011;41329;41.594;23.810;2023-04-25T14:13:12;1.20;;;0.90;;
55465;SDS011;41329;41.594;23.810;2023-04-25T14:15:38;3.28;;;0.75;;
55465;SDS011;41329;41.594;23.810;2023-04-25T14:18:03;1.05;;;0.60;;
55465;SDS011;41329;41.594;23.810;2023-04-25T14:20:29;0.95;;;0.68;;
55465;SDS011;41329;41.594;23.810;2023-04-25T14:22:55;1.83;;;1.73;;
55465;SDS011;41329;41.594;23.810;2023-04-25T14:25:22;5.32;;;4.97;;
55465;SDS011;41329;41.594;23.810;2023-04-25T14:27:48;2.30;;;2.15;;
55465;SDS011;41329;41.594;23.810;2023-04-25T14:30:17;2.35;;;1.70;;
55465;SDS011;41329;41.594;23.810;2023-04-25T14:32:44;7.63;;;7.00;;
55465;SDS011;41329;41.594;23.810;2023-04-25T14:35:10;2.38;;;2.22;;
55465;SDS011;41329;41.594;23.810;2023-04-25T14:37:36;4.38;;;4.18;;
55465;SDS011;41329;41.594;23.810;2023-04-25T14:40:01;2.78;;;2.47;;
55465;SDS011;41329;41.594;23.810;2023-04-25T14:42:27;1.10;;;0.98;;
55465;SDS011;41329;41.594;23.810;2023-04-25T14:44:52;1.83;;;1.35;;
55465;SDS011;41329;41.594;23.810;2023-04-25T14:47:18;1.40;;;1.30;;